createdAt,value
2017-04-13T00:00:24.444Z,0
2017-04-13T00:01:24.404Z,0
2017-04-13T00:02:24.345Z,0
2017-04-13T00:03:24.360Z,0
2017-04-13T00:04:24.322Z,0
2017-04-13T00:05:24.312Z,0
2017-04-13T00:06:24.323Z,0
2017-04-13T00:07:24.364Z,0
2017-04-13T00:08:24.289Z,0
2017-04-13T00:09:24.266Z,0
2017-04-13T00:10:23.954Z,0
2017-04-13T00:11:23.941Z,0
2017-04-13T00:12:23.948Z,0
2017-04-13T00:13:24.224Z,0
2017-04-13T00:14:24.250Z,0
2017-04-13T00:15:24.202Z,0
2017-04-13T00:16:24.189Z,0
2017-04-13T00:17:23.863Z,0
2017-04-13T00:18:24.171Z,0
2017-04-13T00:19:24.155Z,0
2017-04-13T00:20:23.830Z,0
2017-04-13T00:21:23.826Z,0
2017-04-13T00:22:24.133Z,0
2017-04-13T00:23:24.117Z,0
2017-04-13T00:24:24.117Z,0
2017-04-13T00:25:24.094Z,0
2017-04-13T00:26:23.454Z,0
2017-04-13T00:27:24.068Z,0
2017-04-13T00:28:23.747Z,0
2017-04-13T00:29:24.054Z,0
2017-04-13T00:30:23.728Z,0
2017-04-13T00:31:24.024Z,0
2017-04-13T00:32:23.390Z,0
2017-04-13T00:33:24.007Z,0
2017-04-13T00:34:23.994Z,0
2017-04-13T00:35:23.981Z,0
2017-04-13T00:36:23.967Z,0
2017-04-13T00:37:23.963Z,0
2017-04-13T00:38:23.955Z,0
2017-04-13T00:39:23.943Z,0
2017-04-13T00:40:23.619Z,0
2017-04-13T00:41:23.919Z,0
2017-04-13T00:42:23.905Z,0
2017-04-13T00:43:23.895Z,0
2017-04-13T00:44:23.574Z,0
2017-04-13T00:45:23.600Z,0
2017-04-13T00:46:23.861Z,0
2017-04-13T00:47:23.849Z,0
2017-04-13T00:48:23.843Z,0
2017-04-13T00:49:23.833Z,0
2017-04-13T00:50:23.811Z,0
2017-04-13T00:51:23.175Z,0
2017-04-13T00:52:23.800Z,0
2017-04-13T00:53:23.791Z,0
2017-04-13T00:54:23.776Z,0
2017-04-13T00:55:23.763Z,0
2017-04-13T00:56:23.125Z,0
2017-04-13T00:57:23.799Z,0
2017-04-13T00:58:23.733Z,0
2017-04-13T00:59:23.720Z,0
2017-04-13T01:00:23.712Z,0
2017-04-13T01:01:23.694Z,0
2017-04-13T01:02:23.681Z,0
2017-04-13T01:03:23.683Z,0
2017-04-13T01:04:23.664Z,0
2017-04-13T01:05:32.994Z,0
2017-04-13T01:06:23.635Z,0
2017-04-13T01:07:23.625Z,0
2017-04-13T01:08:23.609Z,0
2017-04-13T01:09:23.606Z,0
2017-04-13T01:10:23.279Z,0
2017-04-13T01:11:23.264Z,0
2017-04-13T01:12:23.567Z,0
2017-04-13T01:13:23.559Z,0
2017-04-13T01:14:23.543Z,0
2017-04-13T01:15:23.575Z,0
2017-04-13T01:16:23.218Z,0
2017-04-13T01:17:23.199Z,0
2017-04-13T01:18:23.502Z,0
2017-04-13T01:19:23.496Z,0
2017-04-13T01:20:23.478Z,0
2017-04-13T01:21:23.155Z,0
2017-04-13T01:22:23.146Z,0
2017-04-13T01:23:23.454Z,0
2017-04-13T01:24:23.439Z,0
2017-04-13T01:25:23.114Z,0
2017-04-13T01:26:23.099Z,0
2017-04-13T01:27:23.403Z,0
2017-04-13T01:28:23.396Z,0
2017-04-13T01:29:23.383Z,0
2017-04-13T01:30:23.366Z,0
2017-04-13T01:31:23.044Z,0
2017-04-13T01:32:23.359Z,0
2017-04-13T01:33:23.341Z,0
2017-04-13T01:34:23.019Z,0
2017-04-13T01:35:23.316Z,0
2017-04-13T01:36:23.339Z,0
2017-04-13T01:37:22.977Z,0
2017-04-13T01:38:22.969Z,0
2017-04-13T01:39:23.271Z,0
2017-04-13T01:40:22.942Z,0
2017-04-13T01:41:23.253Z,0
2017-04-13T01:42:22.916Z,0
2017-04-13T01:43:22.909Z,0
2017-04-13T01:44:22.916Z,0
2017-04-13T01:45:23.198Z,0
2017-04-13T01:46:23.185Z,0
2017-04-13T01:47:23.180Z,0
2017-04-13T01:48:23.172Z,0
2017-04-13T01:49:23.155Z,0
2017-04-13T01:50:23.193Z,0
2017-04-13T01:51:23.132Z,0
2017-04-13T01:52:23.128Z,0
2017-04-13T01:53:23.111Z,0
2017-04-13T01:54:22.796Z,0
2017-04-13T01:55:23.085Z,0
2017-04-13T01:56:23.073Z,0
2017-04-13T01:57:23.063Z,0
2017-04-13T01:58:23.060Z,0
2017-04-13T01:59:23.039Z,0
2017-04-13T02:00:23.031Z,0
2017-04-13T02:01:23.017Z,0
2017-04-13T02:02:23.007Z,0
2017-04-13T02:03:22.991Z,0
2017-04-13T02:04:23.031Z,0
2017-04-13T02:05:22.973Z,0
2017-04-13T02:06:22.964Z,0
2017-04-13T02:07:22.640Z,0
2017-04-13T02:08:22.981Z,0
2017-04-13T02:09:22.616Z,0
2017-04-13T02:10:22.913Z,0
2017-04-13T02:11:22.593Z,0
2017-04-13T02:12:22.266Z,0
2017-04-13T02:13:22.879Z,0
2017-04-13T02:14:22.870Z,0
2017-04-13T02:15:22.861Z,0
2017-04-13T02:16:23.134Z,0
2017-04-13T02:17:22.837Z,0
2017-04-13T02:18:22.948Z,0
2017-04-13T02:19:22.812Z,0
2017-04-13T02:20:22.803Z,0
2017-04-13T02:21:22.790Z,0
2017-04-13T02:22:22.774Z,0
2017-04-13T02:23:22.763Z,0
2017-04-13T02:24:22.778Z,0
2017-04-13T02:25:22.746Z,0
2017-04-13T02:26:22.734Z,0
2017-04-13T02:27:22.411Z,0
2017-04-13T02:28:22.715Z,0
2017-04-13T02:29:22.700Z,0
2017-04-13T02:30:22.375Z,0
2017-04-13T02:31:22.059Z,0
2017-04-13T02:32:22.665Z,0
2017-04-13T02:33:22.660Z,0
2017-04-13T02:34:22.648Z,0
2017-04-13T02:35:22.004Z,0
2017-04-13T02:36:22.621Z,0
2017-04-13T02:37:22.608Z,0
2017-04-13T02:38:21.964Z,0
2017-04-13T02:39:22.589Z,0
2017-04-13T02:40:22.575Z,0
2017-04-13T02:41:22.560Z,0
2017-04-13T02:42:22.550Z,0
2017-04-13T02:43:22.229Z,0
2017-04-13T02:44:21.896Z,0
2017-04-13T02:45:22.514Z,0
2017-04-13T02:46:22.187Z,0
2017-04-13T02:47:22.282Z,0
2017-04-13T02:48:21.979Z,0
2017-04-13T02:49:22.471Z,0
2017-04-13T02:50:22.940Z,0
2017-04-13T02:51:22.824Z,0
2017-04-13T02:52:22.531Z,0
2017-04-13T02:53:22.364Z,0
2017-04-13T02:54:21.812Z,0
2017-04-13T02:55:22.086Z,0
2017-04-13T02:56:22.462Z,0
2017-04-13T02:57:22.381Z,0
2017-04-13T02:58:22.437Z,0
2017-04-13T02:59:22.355Z,0
2017-04-13T03:00:22.342Z,0
2017-04-13T03:01:22.329Z,0
2017-04-13T03:02:22.208Z,0
2017-04-13T03:03:22.659Z,0
2017-04-13T03:04:23.137Z,0
2017-04-13T03:05:22.829Z,0
2017-04-13T03:06:23.347Z,0
2017-04-13T03:07:22.471Z,0
2017-04-13T03:08:22.590Z,0
2017-04-13T03:09:21.966Z,0
2017-04-13T03:10:22.417Z,0
2017-04-13T03:11:21.902Z,0
2017-04-13T03:12:22.323Z,0
2017-04-13T03:13:22.353Z,0
2017-04-13T03:14:22.580Z,0
2017-04-13T03:15:21.656Z,0
2017-04-13T03:16:22.197Z,0
2017-04-13T03:17:22.569Z,0
2017-04-13T03:18:22.235Z,0
2017-04-13T03:19:22.365Z,0
2017-04-13T03:20:22.657Z,0
2017-04-13T03:21:22.197Z,0
2017-04-13T03:22:22.460Z,0
2017-04-13T03:23:22.449Z,0
2017-04-13T03:24:22.071Z,0
2017-04-13T03:25:22.381Z,0
2017-04-13T03:26:22.337Z,0
2017-04-13T03:27:22.030Z,0
2017-04-13T03:28:22.417Z,0
2017-04-13T03:29:22.229Z,0
2017-04-13T03:30:22.049Z,0
2017-04-13T03:31:21.898Z,0
2017-04-13T03:32:21.879Z,0
2017-04-13T03:33:22.065Z,0
2017-04-13T03:34:21.953Z,0
2017-04-13T03:35:21.743Z,0
2017-04-13T03:36:21.942Z,0
2017-04-13T03:37:21.603Z,0
2017-04-13T03:38:21.929Z,0
2017-04-13T03:39:22.032Z,0
2017-04-13T03:40:22.175Z,0
2017-04-13T03:41:21.600Z,0
2017-04-13T03:42:21.763Z,0
2017-04-13T03:43:21.926Z,0
2017-04-13T03:44:21.839Z,0
2017-04-13T03:45:21.830Z,0
2017-04-13T03:46:21.671Z,0
2017-04-13T03:47:21.936Z,0
2017-04-13T03:48:21.921Z,0
2017-04-13T03:49:21.838Z,0
2017-04-13T03:50:21.774Z,0
2017-04-13T03:51:21.555Z,0
2017-04-13T03:52:21.437Z,0
2017-04-13T03:53:21.807Z,4
2017-04-13T03:54:21.943Z,4
2017-04-13T03:55:21.403Z,4
2017-04-13T03:56:21.710Z,0
2017-04-13T03:57:21.799Z,4
2017-04-13T03:58:21.654Z,4
2017-04-13T03:59:21.870Z,4
2017-04-13T04:00:21.732Z,8
2017-04-13T04:01:22.059Z,8
2017-04-13T04:02:21.160Z,8
2017-04-13T04:03:21.308Z,12
2017-04-13T04:04:21.498Z,12
2017-04-13T04:05:21.102Z,12
2017-04-13T04:06:21.630Z,12
2017-04-13T04:07:21.265Z,12
2017-04-13T04:08:21.383Z,16
2017-04-13T04:09:21.315Z,16
2017-04-13T04:10:21.064Z,20
2017-04-13T04:11:21.538Z,16
2017-04-13T04:12:21.300Z,20
2017-04-13T04:13:21.298Z,20
2017-04-13T04:14:21.225Z,24
2017-04-13T04:15:21.169Z,32
2017-04-13T04:16:21.579Z,44
2017-04-13T04:17:22.052Z,48
2017-04-13T04:18:21.434Z,52
2017-04-13T04:19:21.451Z,52
2017-04-13T04:20:21.590Z,52
2017-04-13T04:21:21.124Z,60
2017-04-13T04:22:21.423Z,64
2017-04-13T04:23:21.394Z,80
2017-04-13T04:24:21.382Z,92
2017-04-13T04:25:21.076Z,92
2017-04-13T04:26:21.449Z,80
2017-04-13T04:27:21.439Z,72
2017-04-13T04:28:21.386Z,68
2017-04-13T04:29:21.595Z,64
2017-04-13T04:30:21.317Z,64
2017-04-13T04:31:20.988Z,64
2017-04-13T04:32:20.663Z,64
2017-04-13T04:33:20.963Z,88
2017-04-13T04:34:21.268Z,124
2017-04-13T04:35:21.254Z,160
2017-04-13T04:36:21.286Z,180
2017-04-13T04:37:20.918Z,176
2017-04-13T04:38:20.907Z,196
2017-04-13T04:39:21.213Z,232
2017-04-13T04:40:21.196Z,244
2017-04-13T04:41:21.191Z,256
2017-04-13T04:42:21.176Z,256
2017-04-13T04:43:21.168Z,240
2017-04-13T04:44:21.383Z,256
2017-04-13T04:45:21.143Z,340
2017-04-13T04:46:21.132Z,332
2017-04-13T04:47:20.804Z,300
2017-04-13T04:48:21.105Z,296
2017-04-13T04:49:20.783Z,288
2017-04-13T04:50:21.087Z,296
2017-04-13T04:51:21.077Z,292
2017-04-13T04:52:20.748Z,304
2017-04-13T04:53:21.047Z,296
2017-04-13T04:54:20.413Z,308
2017-04-13T04:55:21.031Z,304
2017-04-13T04:56:21.018Z,292
2017-04-13T04:57:20.691Z,328
2017-04-13T04:58:20.678Z,348
2017-04-13T04:59:20.670Z,372
2017-04-13T05:00:20.972Z,396
2017-04-13T05:01:20.647Z,408
2017-04-13T05:02:20.951Z,348
2017-04-13T05:03:20.935Z,316
2017-04-13T05:04:20.617Z,332
2017-04-13T05:05:20.597Z,368
2017-04-13T05:06:20.907Z,368
2017-04-13T05:07:20.895Z,320
2017-04-13T05:08:20.567Z,336
2017-04-13T05:09:20.875Z,340
2017-04-13T05:10:20.859Z,356
2017-04-13T05:11:20.847Z,476
2017-04-13T05:12:20.524Z,504
2017-04-13T05:13:20.831Z,484
2017-04-13T05:14:20.496Z,468
2017-04-13T05:15:20.807Z,520
2017-04-13T05:16:20.795Z,504
2017-04-13T05:17:20.779Z,492
2017-04-13T05:18:20.459Z,424
2017-04-13T05:19:20.446Z,368
2017-04-13T05:20:20.439Z,424
2017-04-13T05:21:20.108Z,468
2017-04-13T05:22:20.730Z,472
2017-04-13T05:23:20.090Z,460
2017-04-13T05:24:20.390Z,492
2017-04-13T05:25:20.380Z,568
2017-04-13T05:26:20.679Z,576
2017-04-13T05:27:20.670Z,560
2017-04-13T05:28:20.344Z,596
2017-04-13T05:29:20.651Z,696
2017-04-13T05:30:20.640Z,728
2017-04-13T05:31:20.324Z,704
2017-04-13T05:32:20.614Z,744
2017-04-13T05:33:20.604Z,796
2017-04-13T05:34:20.597Z,928
2017-04-13T05:35:20.583Z,1188
2017-04-13T05:36:20.567Z,1256
2017-04-13T05:37:20.563Z,1148
2017-04-13T05:38:20.549Z,1096
2017-04-13T05:39:20.222Z,1220
2017-04-13T05:40:20.540Z,1280
2017-04-13T05:41:20.518Z,1396
2017-04-13T05:42:20.188Z,1448
2017-04-13T05:43:20.174Z,1424
2017-04-13T05:44:20.481Z,1240
2017-04-13T05:45:20.470Z,944
2017-04-13T05:46:20.143Z,864
2017-04-13T05:47:20.449Z,936
2017-04-13T05:48:20.438Z,936
2017-04-13T05:49:20.109Z,848
2017-04-13T05:50:20.419Z,816
2017-04-13T05:51:20.404Z,832
2017-04-13T05:52:20.086Z,768
2017-04-13T05:53:20.384Z,748
2017-04-13T05:54:20.061Z,816
2017-04-13T05:55:20.357Z,960
2017-04-13T05:56:20.362Z,1032
2017-04-13T05:57:20.339Z,1036
2017-04-13T05:58:20.329Z,1032
2017-04-13T05:59:20.318Z,1080
2017-04-13T06:00:19.991Z,1116
2017-04-13T06:01:20.294Z,1184
2017-04-13T06:02:19.338Z,1208
2017-04-13T06:03:19.959Z,1248
2017-04-13T06:04:19.947Z,1072
2017-04-13T06:05:20.249Z,1104
2017-04-13T06:06:19.928Z,1152
2017-04-13T06:07:20.228Z,1204
2017-04-13T06:08:19.901Z,1184
2017-04-13T06:09:19.890Z,1296
2017-04-13T06:10:20.201Z,1504
2017-04-13T06:11:19.872Z,1548
2017-04-13T06:12:19.856Z,1504
2017-04-13T06:13:20.168Z,1460
2017-04-13T06:14:20.149Z,1128
2017-04-13T06:15:19.823Z,920
2017-04-13T06:16:20.130Z,848
2017-04-13T06:17:20.116Z,852
2017-04-13T06:18:19.797Z,856
2017-04-13T06:19:20.096Z,920
2017-04-13T06:20:20.084Z,1172
2017-04-13T06:21:20.074Z,1208
2017-04-13T06:22:20.069Z,1000
2017-04-13T06:23:20.053Z,568
2017-04-13T06:24:20.041Z,660
2017-04-13T06:25:19.718Z,1008
2017-04-13T06:26:20.020Z,1456
2017-04-13T06:27:20.003Z,1832
2017-04-13T06:28:19.998Z,2276
2017-04-13T06:29:19.672Z,2680
2017-04-13T06:30:19.971Z,2528
2017-04-13T06:31:19.964Z,2180
2017-04-13T06:32:19.952Z,1744
2017-04-13T06:33:19.939Z,1752
2017-04-13T06:34:19.614Z,1816
2017-04-13T06:35:19.602Z,1596
2017-04-13T06:36:19.273Z,1584
2017-04-13T06:37:19.889Z,1756
2017-04-13T06:38:19.572Z,1816
2017-04-13T06:39:19.559Z,1544
2017-04-13T06:40:19.540Z,1624
2017-04-13T06:41:19.848Z,1764
2017-04-13T06:42:19.521Z,2108
2017-04-13T06:43:19.819Z,2188
2017-04-13T06:44:19.807Z,2216
2017-04-13T06:45:19.482Z,2412
2017-04-13T06:46:19.468Z,3128
2017-04-13T06:47:19.769Z,3420
2017-04-13T06:48:19.453Z,3676
2017-04-13T06:49:19.747Z,3992
2017-04-13T06:50:19.418Z,4556
2017-04-13T06:51:19.719Z,4720
2017-04-13T06:52:19.708Z,4360
2017-04-13T06:53:19.380Z,3992
2017-04-13T06:54:19.683Z,3424
2017-04-13T06:55:19.671Z,3260
2017-04-13T06:56:19.346Z,3648
2017-04-13T06:57:19.649Z,3688
2017-04-13T06:58:19.316Z,4108
2017-04-13T06:59:19.308Z,4128
2017-04-13T07:00:19.307Z,4096
2017-04-13T07:01:19.280Z,3892
2017-04-13T07:02:19.265Z,3640
2017-04-13T07:03:19.566Z,3508
2017-04-13T07:04:19.241Z,3620
2017-04-13T07:05:19.559Z,3052
2017-04-13T07:06:19.529Z,2840
2017-04-13T07:07:19.518Z,3656
2017-04-13T07:08:19.193Z,4240
2017-04-13T07:09:19.491Z,4060
2017-04-13T07:10:19.477Z,3700
2017-04-13T07:11:19.514Z,3032
2017-04-13T07:12:19.459Z,3024
2017-04-13T07:13:19.439Z,2884
2017-04-13T07:14:19.114Z,2636
2017-04-13T07:15:19.108Z,2660
2017-04-13T07:16:19.088Z,2760
2017-04-13T07:17:19.390Z,3284
2017-04-13T07:18:19.375Z,2744
2017-04-13T07:19:19.364Z,2720
2017-04-13T07:20:19.358Z,2852
2017-04-13T07:21:19.340Z,3000
2017-04-13T07:22:19.335Z,2732
2017-04-13T07:23:19.005Z,2532
2017-04-13T07:24:19.305Z,2380
2017-04-13T07:25:19.297Z,2304
2017-04-13T07:26:19.278Z,2460
2017-04-13T07:27:19.000Z,3184
2017-04-13T07:28:18.943Z,3892
2017-04-13T07:29:18.613Z,4176
2017-04-13T07:30:18.911Z,4772
2017-04-13T07:31:18.904Z,4076
2017-04-13T07:32:18.891Z,4660
2017-04-13T07:33:19.196Z,5124
2017-04-13T07:34:18.869Z,4540
2017-04-13T07:35:18.854Z,4476
2017-04-13T07:36:19.202Z,5024
2017-04-13T07:37:19.145Z,5580
2017-04-13T07:38:19.126Z,6072
2017-04-13T07:39:18.487Z,5884
2017-04-13T07:40:19.106Z,5856
2017-04-13T07:41:18.782Z,5612
2017-04-13T07:42:19.081Z,5492
2017-04-13T07:43:18.754Z,5384
2017-04-13T07:44:18.429Z,5752
2017-04-13T07:45:19.041Z,9100
2017-04-13T07:46:18.446Z,9052
2017-04-13T07:47:19.025Z,8448
2017-04-13T07:48:19.041Z,7472
2017-04-13T07:49:18.370Z,9260
2017-04-13T07:50:18.670Z,8272
2017-04-13T07:51:18.344Z,5536
2017-04-13T07:52:18.960Z,6492
2017-04-13T07:53:18.320Z,6336
2017-04-13T07:54:18.311Z,4124
2017-04-13T07:55:18.611Z,4232
2017-04-13T07:56:17.972Z,6420
2017-04-13T07:57:18.906Z,6880
2017-04-13T07:58:18.574Z,7012
2017-04-13T07:59:18.875Z,10688
2017-04-13T08:00:18.241Z,9992
2017-04-13T08:01:18.225Z,9704
2017-04-13T08:02:18.539Z,11008
2017-04-13T08:03:18.205Z,10384
2017-04-13T08:04:18.819Z,9732
2017-04-13T08:05:18.490Z,9864
2017-04-13T08:06:18.797Z,13632
2017-04-13T08:07:18.163Z,11624
2017-04-13T08:08:18.147Z,9924
2017-04-13T08:09:18.768Z,10612
2017-04-13T08:10:18.161Z,14004
2017-04-13T08:11:18.117Z,10420
2017-04-13T08:12:18.101Z,6576
2017-04-13T08:13:18.729Z,9776
2017-04-13T08:14:18.436Z,13944
2017-04-13T08:15:18.699Z,14932
2017-04-13T08:16:18.372Z,7032
2017-04-13T08:17:18.047Z,5640
2017-04-13T08:18:18.041Z,5024
2017-04-13T08:19:18.344Z,3976
2017-04-13T08:20:18.333Z,3252
2017-04-13T08:21:18.318Z,3596
2017-04-13T08:22:18.316Z,3920
2017-04-13T08:23:18.610Z,5516
2017-04-13T08:24:17.972Z,6980
2017-04-13T08:25:18.285Z,5032
2017-04-13T08:26:18.270Z,3544
2017-04-13T08:27:17.944Z,7540
2017-04-13T08:28:17.927Z,9756
2017-04-13T08:29:18.592Z,10016
2017-04-13T08:30:18.222Z,10156
2017-04-13T08:31:18.526Z,11480
2017-04-13T08:32:18.205Z,15184
2017-04-13T08:33:18.192Z,14200
2017-04-13T08:34:18.181Z,11560
2017-04-13T08:35:18.169Z,12752
2017-04-13T08:36:18.162Z,11932
2017-04-13T08:37:18.457Z,11572
2017-04-13T08:38:18.449Z,11720
2017-04-13T08:39:18.130Z,11564
2017-04-13T08:40:18.430Z,11524
2017-04-13T08:41:18.109Z,11876
2017-04-13T08:42:18.097Z,11888
2017-04-13T08:43:17.772Z,9324
2017-04-13T08:44:18.081Z,10784
2017-04-13T08:45:18.379Z,10544
2017-04-13T08:46:18.374Z,11052
2017-04-13T08:47:18.360Z,8012
2017-04-13T08:48:18.353Z,5188
2017-04-13T08:49:17.710Z,6012
2017-04-13T08:50:18.016Z,6312
2017-04-13T08:51:17.696Z,5808
2017-04-13T08:52:17.997Z,7792
2017-04-13T08:53:18.296Z,8820
2017-04-13T08:54:18.291Z,8408
2017-04-13T08:55:18.279Z,8080
2017-04-13T08:56:17.961Z,7676
2017-04-13T08:57:17.946Z,7460
2017-04-13T08:58:18.294Z,6532
2017-04-13T08:59:17.609Z,6168
2017-04-13T09:00:17.286Z,6880
2017-04-13T09:01:17.904Z,6040
2017-04-13T09:02:17.581Z,5928
2017-04-13T09:03:17.570Z,6220
2017-04-13T09:04:17.869Z,7084
2017-04-13T09:05:17.862Z,7220
2017-04-13T09:06:17.543Z,8852
2017-04-13T09:07:17.847Z,10148
2017-04-13T09:08:18.153Z,10816
2017-04-13T09:09:17.832Z,12744
2017-04-13T09:10:17.814Z,13088
2017-04-13T09:11:17.804Z,12456
2017-04-13T09:12:17.793Z,10648
2017-04-13T09:13:18.105Z,11868
2017-04-13T09:14:17.774Z,13508
2017-04-13T09:15:18.083Z,13168
2017-04-13T09:16:18.074Z,11512
2017-04-13T09:17:17.433Z,12292
2017-04-13T09:18:18.052Z,14424
2017-04-13T09:19:18.040Z,13096
2017-04-13T09:20:17.407Z,12488
2017-04-13T09:21:17.398Z,12664
2017-04-13T09:22:17.707Z,13128
2017-04-13T09:23:17.691Z,14224
2017-04-13T09:24:18.005Z,14600
2017-04-13T09:25:17.985Z,13764
2017-04-13T09:26:17.985Z,12944
2017-04-13T09:27:17.656Z,12716
2017-04-13T09:28:17.978Z,12836
2017-04-13T09:29:17.953Z,13012
2017-04-13T09:30:17.317Z,13016
2017-04-13T09:31:17.940Z,13076
2017-04-13T09:32:17.613Z,13072
2017-04-13T09:33:17.915Z,13116
2017-04-13T09:34:17.908Z,13036
2017-04-13T09:35:17.585Z,13464
2017-04-13T09:36:17.578Z,14076
2017-04-13T09:37:17.883Z,14404
2017-04-13T09:38:17.560Z,14216
2017-04-13T09:39:17.875Z,14048
2017-04-13T09:40:17.543Z,14264
2017-04-13T09:41:17.849Z,14748
2017-04-13T09:42:17.840Z,15048
2017-04-13T09:43:17.201Z,15124
2017-04-13T09:44:17.519Z,15408
2017-04-13T09:45:17.185Z,15988
2017-04-13T09:46:17.808Z,16608
2017-04-13T09:47:17.485Z,16800
2017-04-13T09:48:17.482Z,16704
2017-04-13T09:49:16.842Z,16832
2017-04-13T09:50:17.153Z,16960
2017-04-13T09:51:17.454Z,16608
2017-04-13T09:52:17.128Z,15668
2017-04-13T09:53:17.435Z,14512
2017-04-13T09:54:17.110Z,12812
2017-04-13T09:55:17.419Z,12408
2017-04-13T09:56:17.410Z,14012
2017-04-13T09:57:17.714Z,14776
2017-04-13T09:58:17.401Z,14604
2017-04-13T09:59:17.390Z,15096
2017-04-13T10:00:17.693Z,15588
2017-04-13T10:01:17.374Z,15752
2017-04-13T10:02:17.366Z,15768
2017-04-13T10:03:17.354Z,15760
2017-04-13T10:04:17.036Z,15856
2017-04-13T10:05:17.345Z,15964
2017-04-13T10:06:17.019Z,15952
2017-04-13T10:07:17.330Z,15924
2017-04-13T10:08:17.637Z,16992
2017-04-13T10:09:17.314Z,17312
2017-04-13T10:10:16.992Z,17440
2017-04-13T10:11:17.302Z,17248
2017-04-13T10:12:17.291Z,17152
2017-04-13T10:13:17.290Z,17024
2017-04-13T10:14:17.590Z,17280
2017-04-13T10:15:17.586Z,17792
2017-04-13T10:16:17.575Z,17920
2017-04-13T10:17:17.569Z,17760
2017-04-13T10:18:16.937Z,17344
2017-04-13T10:19:16.927Z,17152
2017-04-13T10:20:16.918Z,16928
2017-04-13T10:21:16.919Z,16292
2017-04-13T10:22:16.903Z,15304
2017-04-13T10:23:16.594Z,15212
2017-04-13T10:24:17.517Z,15564
2017-04-13T10:25:16.879Z,16260
2017-04-13T10:26:16.874Z,16640
2017-04-13T10:27:17.183Z,16032
2017-04-13T10:28:16.860Z,15364
2017-04-13T10:29:17.171Z,14948
2017-04-13T10:30:17.478Z,14640
2017-04-13T10:31:17.468Z,14536
2017-04-13T10:32:17.463Z,14568
2017-04-13T10:33:17.138Z,14588
2017-04-13T10:34:17.448Z,14096
2017-04-13T10:35:17.474Z,13620
2017-04-13T10:36:17.431Z,13188
2017-04-13T10:37:17.118Z,12276
2017-04-13T10:38:17.108Z,11660
2017-04-13T10:39:17.095Z,11880
2017-04-13T10:40:17.405Z,12828
2017-04-13T10:41:17.401Z,13736
2017-04-13T10:42:17.395Z,13736
2017-04-13T10:43:17.071Z,12940
2017-04-13T10:44:17.062Z,11792
2017-04-13T10:45:17.368Z,10732
2017-04-13T10:46:16.729Z,10084
2017-04-13T10:47:17.038Z,10312
2017-04-13T10:48:17.350Z,11320
2017-04-13T10:49:17.025Z,13012
2017-04-13T10:50:17.023Z,15080
2017-04-13T10:51:17.015Z,13636
2017-04-13T10:52:17.325Z,12324
2017-04-13T10:53:16.998Z,11576
2017-04-13T10:54:17.307Z,11908
2017-04-13T10:55:17.296Z,12540
2017-04-13T10:56:16.978Z,12864
2017-04-13T10:57:17.282Z,13376
2017-04-13T10:58:16.965Z,13192
2017-04-13T10:59:17.274Z,13408
2017-04-13T11:00:16.950Z,13352
2017-04-13T11:01:17.253Z,13108
2017-04-13T11:02:16.939Z,12952
2017-04-13T11:03:16.927Z,12344
2017-04-13T11:04:16.925Z,12280
2017-04-13T11:05:16.921Z,12088
2017-04-13T11:06:17.223Z,11704
2017-04-13T11:07:16.906Z,11100
2017-04-13T11:08:16.583Z,10612
2017-04-13T11:09:17.206Z,10408
2017-04-13T11:10:16.885Z,10060
2017-04-13T11:11:16.881Z,9948
2017-04-13T11:12:16.868Z,10200
2017-04-13T11:13:16.862Z,10084
2017-04-13T11:14:17.168Z,10392
2017-04-13T11:15:16.646Z,10664
2017-04-13T11:16:16.840Z,10784
2017-04-13T11:17:17.150Z,11272
2017-04-13T11:18:17.145Z,11300
2017-04-13T11:19:16.831Z,11280
2017-04-13T11:20:16.894Z,10672
2017-04-13T11:21:16.854Z,10256
2017-04-13T11:22:16.812Z,9376
2017-04-13T11:23:16.498Z,9132
2017-04-13T11:24:16.498Z,9080
2017-04-13T11:25:17.133Z,9748
2017-04-13T11:26:16.796Z,9064
2017-04-13T11:27:17.143Z,9472
2017-04-13T11:28:17.138Z,9344
2017-04-13T11:29:17.076Z,9620
2017-04-13T11:30:17.064Z,10000
2017-04-13T11:31:17.059Z,10116
2017-04-13T11:32:17.052Z,10300
2017-04-13T11:33:16.733Z,10252
2017-04-13T11:34:16.410Z,9916
2017-04-13T11:35:16.722Z,9612
2017-04-13T11:36:17.033Z,9560
2017-04-13T11:37:16.713Z,9316
2017-04-13T11:38:16.701Z,9152
2017-04-13T11:39:16.693Z,8980
2017-04-13T11:40:16.377Z,9040
2017-04-13T11:41:16.683Z,10088
2017-04-13T11:42:16.675Z,11600
2017-04-13T11:43:16.669Z,12408
2017-04-13T11:44:16.976Z,12084
2017-04-13T11:45:16.031Z,11688
2017-04-13T11:46:16.654Z,11852
2017-04-13T11:47:16.650Z,11396
2017-04-13T11:48:16.961Z,10556
2017-04-13T11:49:16.950Z,9392
2017-04-13T11:50:16.630Z,9156
2017-04-13T11:51:16.957Z,9056
2017-04-13T11:52:16.948Z,8392
2017-04-13T11:53:16.929Z,7840
2017-04-13T11:54:16.608Z,7300
2017-04-13T11:55:16.919Z,6712
2017-04-13T11:56:16.594Z,6744
2017-04-13T11:57:16.907Z,6932
2017-04-13T11:58:16.896Z,7436
2017-04-13T11:59:16.897Z,8548
2017-04-13T12:00:16.901Z,8252
2017-04-13T12:01:16.573Z,7396
2017-04-13T12:02:16.877Z,6616
2017-04-13T12:03:16.867Z,6440
2017-04-13T12:04:16.865Z,6688
2017-04-13T12:05:16.543Z,6932
2017-04-13T12:06:16.534Z,7640
2017-04-13T12:07:16.538Z,7844
2017-04-13T12:08:16.837Z,8164
2017-04-13T12:09:16.201Z,9492
2017-04-13T12:10:16.200Z,10516
2017-04-13T12:11:16.821Z,10924
2017-04-13T12:12:16.810Z,11224
2017-04-13T12:13:16.498Z,11392
2017-04-13T12:14:16.181Z,11224
2017-04-13T12:15:16.794Z,11484
2017-04-13T12:16:16.511Z,12596
2017-04-13T12:17:16.472Z,13028
2017-04-13T12:18:16.463Z,12504
2017-04-13T12:19:16.157Z,11864
2017-04-13T12:20:16.523Z,11780
2017-04-13T12:21:16.765Z,12180
2017-04-13T12:22:16.463Z,12828
2017-04-13T12:23:16.749Z,13960
2017-04-13T12:24:16.741Z,14608
2017-04-13T12:25:16.421Z,14516
2017-04-13T12:26:16.729Z,13628
2017-04-13T12:27:16.410Z,12768
2017-04-13T12:28:16.720Z,11952
2017-04-13T12:29:16.711Z,12452
2017-04-13T12:30:16.088Z,12340
2017-04-13T12:31:16.709Z,11488
2017-04-13T12:32:16.065Z,11192
2017-04-13T12:33:15.744Z,11228
2017-04-13T12:34:16.377Z,12132
2017-04-13T12:35:16.674Z,12772
2017-04-13T12:36:16.043Z,13216
2017-04-13T12:37:16.349Z,13700
2017-04-13T12:38:16.660Z,13728
2017-04-13T12:39:16.654Z,13372
2017-04-13T12:40:16.344Z,12244
2017-04-13T12:41:16.016Z,11316
2017-04-13T12:42:16.008Z,10792
2017-04-13T12:43:16.313Z,10880
2017-04-13T12:44:16.620Z,11560
2017-04-13T12:45:16.302Z,11856
2017-04-13T12:46:16.611Z,12196
2017-04-13T12:47:16.287Z,12336
2017-04-13T12:48:16.598Z,12160
2017-04-13T12:49:16.278Z,12552
2017-04-13T12:50:16.273Z,12392
2017-04-13T12:51:16.309Z,12612
2017-04-13T12:52:16.262Z,13236
2017-04-13T12:53:16.253Z,13548
2017-04-13T12:54:16.249Z,13292
2017-04-13T12:55:15.930Z,12828
2017-04-13T12:56:15.923Z,13352
2017-04-13T12:57:16.547Z,13524
2017-04-13T12:58:16.224Z,13144
2017-04-13T12:59:16.534Z,11708
2017-04-13T13:00:16.533Z,10432
2017-04-13T13:01:16.208Z,10096
2017-04-13T13:02:15.886Z,10228
2017-04-13T13:03:16.508Z,11012
2017-04-13T13:04:16.189Z,12008
2017-04-13T13:05:16.498Z,12184
2017-04-13T13:06:16.490Z,11520
2017-04-13T13:07:16.182Z,10636
2017-04-13T13:08:16.168Z,9956
2017-04-13T13:09:16.164Z,9580
2017-04-13T13:10:15.848Z,9332
2017-04-13T13:11:16.155Z,8668
2017-04-13T13:12:15.837Z,7904
2017-04-13T13:13:16.456Z,7224
2017-04-13T13:14:15.828Z,6892
2017-04-13T13:15:16.133Z,6956
2017-04-13T13:16:15.812Z,7204
2017-04-13T13:17:16.120Z,7416
2017-04-13T13:18:16.124Z,7556
2017-04-13T13:19:16.107Z,7836
2017-04-13T13:20:15.793Z,8328
2017-04-13T13:21:16.100Z,9028
2017-04-13T13:22:16.091Z,9968
2017-04-13T13:23:16.396Z,10804
2017-04-13T13:24:16.088Z,11100
2017-04-13T13:25:16.073Z,10824
2017-04-13T13:26:16.383Z,10760
2017-04-13T13:27:16.376Z,10908
2017-04-13T13:28:16.062Z,11280
2017-04-13T13:29:16.053Z,11464
2017-04-13T13:30:16.360Z,11604
2017-04-13T13:31:16.041Z,11148
2017-04-13T13:32:15.718Z,10532
2017-04-13T13:33:16.024Z,10016
2017-04-13T13:34:16.330Z,9712
2017-04-13T13:35:15.704Z,9428
2017-04-13T13:36:15.696Z,9384
2017-04-13T13:37:16.000Z,9324
2017-04-13T13:38:16.312Z,9432
2017-04-13T13:39:16.310Z,10048